To NAV CANADA Home Page Login to a new session Search on AWWS site Feedback and Comments Disclaimer Vers la page française équivalente Tips FAQ What's new on the site To the Forecasts and Observations / NOTAM section To "File a Flight Plan" website Publications and other links Update of the User's profile FIC Telephone Numbers My Weather Data Folder Route Weather Data Regional Weather Data Local Weather Data To the Forecasts and Observations / NOTAM section
Request Generated 09/27/2016 at 08:37:51 UTC . Weather information available at that time is displayed.

METAR/TAF

KELOWNA/BC    (show WxCam)

METAR CYLW 270800Z AUTO VRB03KT 9SM FEW210 BKN250 15/13 A2994 RMK
SLP139 DENSITY ALT 1700FT=
METAR CYLW 270700Z AUTO VRB04KT 9SM FEW100 17/13 A2994 RMK SLP140
DENSITY ALT 1800FT=
METAR CYLW 270600Z AUTO 02005KT 310V050 9SM BKN110 BKN220 16/13 A2993
RMK SLP138 DENSITY ALT 1800FT=

TAF CYLW 270638Z 2707/2719 VRB03KT P6SM BKN100
BECMG 2717/2719 35012KT
RMK FCST BASED ON AUTO OBS. NXT FCST BY 271300Z=
Your time UTC time
Weather data provided by Environment Canada and NAV CANADA